sensor_id;sensor_type;location;lat;lon;timestamp;P1;durP1;ratioP1;P2;durP2;ratioP2
13439;SDS011;6792;57.698;11.946;2023-06-22T00:01:07;7.15;;;4.12;;
13439;SDS011;6792;57.698;11.946;2023-06-22T00:03:36;5.78;;;3.80;;
13439;SDS011;6792;57.698;11.946;2023-06-22T00:06:06;8.35;;;4.03;;
13439;SDS011;6792;57.698;11.946;2023-06-22T00:08:35;7.53;;;4.00;;
13439;SDS011;6792;57.698;11.946;2023-06-22T00:11:04;9.68;;;3.90;;
13439;SDS011;6792;57.698;11.946;2023-06-22T00:13:33;6.58;;;3.50;;
13439;SDS011;6792;57.698;11.946;2023-06-22T00:16:02;7.70;;;3.90;;
13439;SDS011;6792;57.698;11.946;2023-06-22T00:18:32;8.78;;;3.98;;
13439;SDS011;6792;57.698;11.946;2023-06-22T00:21:01;7.05;;;3.90;;
13439;SDS011;6792;57.698;11.946;2023-06-22T00:23:31;5.37;;;3.50;;
13439;SDS011;6792;57.698;11.946;2023-06-22T00:26:00;7.12;;;3.67;;
13439;SDS011;6792;57.698;11.946;2023-06-22T00:28:30;7.10;;;3.75;;
13439;SDS011;6792;57.698;11.946;2023-06-22T00:30:59;7.47;;;3.70;;
13439;SDS011;6792;57.698;11.946;2023-06-22T00:33:28;8.25;;;3.83;;
13439;SDS011;6792;57.698;11.946;2023-06-22T00:35:58;8.88;;;3.98;;
13439;SDS011;6792;57.698;11.946;2023-06-22T00:38:28;7.28;;;3.17;;
13439;SDS011;6792;57.698;11.946;2023-06-22T00:40:58;11.30;;;4.00;;
13439;SDS011;6792;57.698;11.946;2023-06-22T00:43:27;12.18;;;3.37;;
13439;SDS011;6792;57.698;11.946;2023-06-22T00:45:56;6.67;;;3.40;;
13439;SDS011;6792;57.698;11.946;2023-06-22T00:48:25;5.10;;;2.87;;
13439;SDS011;6792;57.698;11.946;2023-06-22T00:50:55;10.05;;;3.58;;
13439;SDS011;6792;57.698;11.946;2023-06-22T00:53:24;6.05;;;3.40;;
13439;SDS011;6792;57.698;11.946;2023-06-22T00:55:54;9.08;;;3.15;;
13439;SDS011;6792;57.698;11.946;2023-06-22T00:58:25;6.72;;;3.30;;
13439;SDS011;6792;57.698;11.946;2023-06-22T01:00:55;6.60;;;3.22;;
13439;SDS011;6792;57.698;11.946;2023-06-22T01:03:24;7.80;;;3.45;;
13439;SDS011;6792;57.698;11.946;2023-06-22T01:05:53;8.73;;;3.02;;
13439;SDS011;6792;57.698;11.946;2023-06-22T01:08:29;8.10;;;3.52;;
13439;SDS011;6792;57.698;11.946;2023-06-22T01:11:00;7.58;;;3.42;;
13439;SDS011;6792;57.698;11.946;2023-06-22T01:13:37;7.80;;;3.30;;
13439;SDS011;6792;57.698;11.946;2023-06-22T01:16:07;7.70;;;3.50;;
13439;SDS011;6792;57.698;11.946;2023-06-22T01:18:38;8.80;;;3.10;;
13439;SDS011;6792;57.698;11.946;2023-06-22T01:21:10;6.00;;;2.90;;
13439;SDS011;6792;57.698;11.946;2023-06-22T01:23:46;7.47;;;3.40;;
13439;SDS011;6792;57.698;11.946;2023-06-22T01:26:22;4.95;;;3.05;;
13439;SDS011;6792;57.698;11.946;2023-06-22T01:28:55;8.25;;;3.27;;
13439;SDS011;6792;57.698;11.946;2023-06-22T01:31:27;4.95;;;2.87;;
13439;SDS011;6792;57.698;11.946;2023-06-22T01:33:58;5.33;;;3.05;;
13439;SDS011;6792;57.698;11.946;2023-06-22T01:36:30;5.95;;;2.67;;
13439;SDS011;6792;57.698;11.946;2023-06-22T01:39:00;5.72;;;3.05;;
13439;SDS011;6792;57.698;11.946;2023-06-22T01:41:34;7.10;;;3.02;;
13439;SDS011;6792;57.698;11.946;2023-06-22T01:44:04;8.88;;;3.10;;
13439;SDS011;6792;57.698;11.946;2023-06-22T01:46:34;6.67;;;3.45;;
13439;SDS011;6792;57.698;11.946;2023-06-22T01:49:05;5.55;;;3.05;;
13439;SDS011;6792;57.698;11.946;2023-06-22T01:51:35;8.08;;;2.92;;
13439;SDS011;6792;57.698;11.946;2023-06-22T01:54:05;9.43;;;3.47;;
13439;SDS011;6792;57.698;11.946;2023-06-22T01:56:35;11.53;;;3.22;;
13439;SDS011;6792;57.698;11.946;2023-06-22T01:59:07;7.15;;;2.87;;
13439;SDS011;6792;57.698;11.946;2023-06-22T02:01:39;6.97;;;2.98;;
13439;SDS011;6792;57.698;11.946;2023-06-22T02:04:12;8.20;;;3.25;;
13439;SDS011;6792;57.698;11.946;2023-06-22T02:06:43;6.87;;;3.22;;
13439;SDS011;6792;57.698;11.946;2023-06-22T02:09:16;8.18;;;2.90;;
13439;SDS011;6792;57.698;11.946;2023-06-22T02:11:48;7.47;;;3.20;;
13439;SDS011;6792;57.698;11.946;2023-06-22T02:14:21;5.65;;;2.87;;
13439;SDS011;6792;57.698;11.946;2023-06-22T02:16:51;6.70;;;2.92;;
13439;SDS011;6792;57.698;11.946;2023-06-22T02:19:23;5.37;;;2.80;;
13439;SDS011;6792;57.698;11.946;2023-06-22T02:21:54;5.22;;;2.67;;
13439;SDS011;6792;57.698;11.946;2023-06-22T02:24:23;7.70;;;3.10;;
13439;SDS011;6792;57.698;11.946;2023-06-22T02:26:52;7.10;;;3.05;;
13439;SDS011;6792;57.698;11.946;2023-06-22T02:29:21;4.95;;;3.15;;
13439;SDS011;6792;57.698;11.946;2023-06-22T02:31:50;6.22;;;2.70;;
13439;SDS011;6792;57.698;11.946;2023-06-22T02:34:20;3.95;;;2.60;;
13439;SDS011;6792;57.698;11.946;2023-06-22T02:36:50;8.25;;;2.83;;
13439;SDS011;6792;57.698;11.946;2023-06-22T02:39:20;8.25;;;3.15;;
13439;SDS011;6792;57.698;11.946;2023-06-22T02:41:50;8.38;;;3.12;;
13439;SDS011;6792;57.698;11.946;2023-06-22T02:44:20;10.53;;;3.35;;
13439;SDS011;6792;57.698;11.946;2023-06-22T02:46:50;9.08;;;3.27;;
13439;SDS011;6792;57.698;11.946;2023-06-22T02:49:20;9.35;;;3.25;;
13439;SDS011;6792;57.698;11.946;2023-06-22T02:51:49;8.25;;;3.15;;
13439;SDS011;6792;57.698;11.946;2023-06-22T02:54:18;6.55;;;2.87;;
13439;SDS011;6792;57.698;11.946;2023-06-22T02:56:48;7.97;;;3.47;;
13439;SDS011;6792;57.698;11.946;2023-06-22T02:59:17;6.92;;;3.25;;
13439;SDS011;6792;57.698;11.946;2023-06-22T03:01:49;8.35;;;3.83;;
13439;SDS011;6792;57.698;11.946;2023-06-22T03:04:18;10.00;;;3.55;;
13439;SDS011;6792;57.698;11.946;2023-06-22T03:06:50;7.25;;;3.35;;
13439;SDS011;6792;57.698;11.946;2023-06-22T03:09:21;8.23;;;3.22;;
13439;SDS011;6792;57.698;11.946;2023-06-22T03:11:50;8.20;;;2.90;;
13439;SDS011;6792;57.698;11.946;2023-06-22T03:14:20;5.78;;;2.77;;
13439;SDS011;6792;57.698;11.946;2023-06-22T03:16:49;5.95;;;3.00;;
13439;SDS011;6792;57.698;11.946;2023-06-22T03:19:18;7.50;;;3.47;;
13439;SDS011;6792;57.698;11.946;2023-06-22T03:21:48;10.30;;;3.25;;
13439;SDS011;6792;57.698;11.946;2023-06-22T03:24:17;8.93;;;3.30;;
13439;SDS011;6792;57.698;11.946;2023-06-22T03:26:47;4.72;;;3.27;;
13439;SDS011;6792;57.698;11.946;2023-06-22T03:29:18;9.68;;;3.70;;
13439;SDS011;6792;57.698;11.946;2023-06-22T03:31:47;6.90;;;3.42;;
13439;SDS011;6792;57.698;11.946;2023-06-22T03:34:16;7.70;;;3.30;;
13439;SDS011;6792;57.698;11.946;2023-06-22T03:36:48;6.62;;;3.35;;
13439;SDS011;6792;57.698;11.946;2023-06-22T03:39:17;7.12;;;3.35;;
13439;SDS011;6792;57.698;11.946;2023-06-22T03:41:47;9.13;;;3.33;;
13439;SDS011;6792;57.698;11.946;2023-06-22T03:44:16;6.00;;;3.05;;
13439;SDS011;6792;57.698;11.946;2023-06-22T03:46:45;6.30;;;3.45;;
13439;SDS011;6792;57.698;11.946;2023-06-22T03:49:15;7.37;;;3.33;;
13439;SDS011;6792;57.698;11.946;2023-06-22T03:51:44;4.47;;;2.80;;
13439;SDS011;6792;57.698;11.946;2023-06-22T03:54:13;10.75;;;3.20;;
13439;SDS011;6792;57.698;11.946;2023-06-22T03:56:42;6.47;;;3.30;;
13439;SDS011;6792;57.698;11.946;2023-06-22T03:59:11;14.63;;;3.47;;
13439;SDS011;6792;57.698;11.946;2023-06-22T04:01:41;6.30;;;3.70;;
13439;SDS011;6792;57.698;11.946;2023-06-22T04:04:11;7.30;;;3.30;;
13439;SDS011;6792;57.698;11.946;2023-06-22T04:06:40;5.85;;;3.33;;
13439;SDS011;6792;57.698;11.946;2023-06-22T04:09:09;10.25;;;3.67;;
13439;SDS011;6792;57.698;11.946;2023-06-22T04:11:38;9.98;;;3.50;;
13439;SDS011;6792;57.698;11.946;2023-06-22T04:14:07;7.28;;;3.20;;
13439;SDS011;6792;57.698;11.946;2023-06-22T04:16:36;8.30;;;3.45;;
13439;SDS011;6792;57.698;11.946;2023-06-22T04:19:06;7.28;;;2.95;;
13439;SDS011;6792;57.698;11.946;2023-06-22T04:21:36;7.95;;;3.20;;
13439;SDS011;6792;57.698;11.946;2023-06-22T04:24:06;9.98;;;4.12;;
13439;SDS011;6792;57.698;11.946;2023-06-22T04:26:35;9.28;;;3.17;;
13439;SDS011;6792;57.698;11.946;2023-06-22T04:29:04;8.88;;;3.08;;
13439;SDS011;6792;57.698;11.946;2023-06-22T04:31:35;9.60;;;3.30;;
13439;SDS011;6792;57.698;11.946;2023-06-22T04:34:04;7.65;;;3.20;;
13439;SDS011;6792;57.698;11.946;2023-06-22T04:36:35;7.35;;;3.65;;
13439;SDS011;6792;57.698;11.946;2023-06-22T04:39:06;6.30;;;3.20;;
13439;SDS011;6792;57.698;11.946;2023-06-22T04:41:36;8.73;;;3.37;;
13439;SDS011;6792;57.698;11.946;2023-06-22T04:44:11;5.50;;;2.77;;
13439;SDS011;6792;57.698;11.946;2023-06-22T04:46:43;4.08;;;2.92;;
13439;SDS011;6792;57.698;11.946;2023-06-22T04:49:12;4.42;;;3.15;;
13439;SDS011;6792;57.698;11.946;2023-06-22T04:51:41;9.78;;;3.30;;
13439;SDS011;6792;57.698;11.946;2023-06-22T04:54:10;6.72;;;3.02;;
13439;SDS011;6792;57.698;11.946;2023-06-22T04:56:39;10.05;;;3.60;;
13439;SDS011;6792;57.698;11.946;2023-06-22T04:59:09;9.18;;;4.00;;
13439;SDS011;6792;57.698;11.946;2023-06-22T05:01:39;7.80;;;3.50;;
13439;SDS011;6792;57.698;11.946;2023-06-22T05:04:08;5.05;;;3.15;;
13439;SDS011;6792;57.698;11.946;2023-06-22T05:06:38;5.08;;;3.08;;
13439;SDS011;6792;57.698;11.946;2023-06-22T05:09:07;6.53;;;3.62;;
13439;SDS011;6792;57.698;11.946;2023-06-22T05:11:38;6.35;;;3.35;;
13439;SDS011;6792;57.698;11.946;2023-06-22T05:14:07;6.25;;;3.52;;
13439;SDS011;6792;57.698;11.946;2023-06-22T05:16:36;9.68;;;4.00;;
13439;SDS011;6792;57.698;11.946;2023-06-22T05:19:05;7.12;;;3.65;;
13439;SDS011;6792;57.698;11.946;2023-06-22T05:21:35;5.92;;;3.35;;
13439;SDS011;6792;57.698;11.946;2023-06-22T05:24:05;7.75;;;3.80;;
13439;SDS011;6792;57.698;11.946;2023-06-22T05:26:34;6.80;;;3.83;;
13439;SDS011;6792;57.698;11.946;2023-06-22T05:29:03;7.58;;;3.60;;
13439;SDS011;6792;57.698;11.946;2023-06-22T05:31:33;6.53;;;3.40;;
13439;SDS011;6792;57.698;11.946;2023-06-22T05:34:02;6.60;;;3.80;;
13439;SDS011;6792;57.698;11.946;2023-06-22T05:36:31;12.60;;;3.92;;
13439;SDS011;6792;57.698;11.946;2023-06-22T05:39:10;10.05;;;3.85;;
13439;SDS011;6792;57.698;11.946;2023-06-22T05:41:39;5.70;;;3.30;;
13439;SDS011;6792;57.698;11.946;2023-06-22T05:44:09;7.00;;;3.90;;
13439;SDS011;6792;57.698;11.946;2023-06-22T05:46:40;7.58;;;3.65;;
13439;SDS011;6792;57.698;11.946;2023-06-22T05:49:12;8.50;;;3.37;;
13439;SDS011;6792;57.698;11.946;2023-06-22T05:51:42;10.25;;;3.62;;
13439;SDS011;6792;57.698;11.946;2023-06-22T05:54:11;6.47;;;3.52;;
13439;SDS011;6792;57.698;11.946;2023-06-22T05:56:42;6.30;;;3.30;;
13439;SDS011;6792;57.698;11.946;2023-06-22T05:59:11;8.28;;;3.50;;
13439;SDS011;6792;57.698;11.946;2023-06-22T06:01:40;9.38;;;4.05;;
13439;SDS011;6792;57.698;11.946;2023-06-22T06:04:09;9.88;;;3.60;;
13439;SDS011;6792;57.698;11.946;2023-06-22T06:06:38;7.83;;;3.35;;
13439;SDS011;6792;57.698;11.946;2023-06-22T06:09:07;9.03;;;3.50;;
13439;SDS011;6792;57.698;11.946;2023-06-22T06:11:37;6.87;;;3.55;;
13439;SDS011;6792;57.698;11.946;2023-06-22T06:14:07;8.75;;;3.55;;
13439;SDS011;6792;57.698;11.946;2023-06-22T06:16:36;5.97;;;3.67;;
13439;SDS011;6792;57.698;11.946;2023-06-22T06:19:05;8.08;;;3.80;;
13439;SDS011;6792;57.698;11.946;2023-06-22T06:21:34;9.90;;;3.75;;
13439;SDS011;6792;57.698;11.946;2023-06-22T06:24:04;5.78;;;3.30;;
13439;SDS011;6792;57.698;11.946;2023-06-22T06:26:33;6.47;;;3.35;;
13439;SDS011;6792;57.698;11.946;2023-06-22T06:29:02;10.38;;;3.90;;
13439;SDS011;6792;57.698;11.946;2023-06-22T06:31:32;14.58;;;3.92;;
13439;SDS011;6792;57.698;11.946;2023-06-22T06:34:01;8.90;;;3.52;;
13439;SDS011;6792;57.698;11.946;2023-06-22T06:36:30;12.28;;;4.17;;
13439;SDS011;6792;57.698;11.946;2023-06-22T06:38:59;11.20;;;3.50;;
13439;SDS011;6792;57.698;11.946;2023-06-22T06:41:30;7.62;;;3.83;;
13439;SDS011;6792;57.698;11.946;2023-06-22T06:43:59;12.43;;;3.50;;
13439;SDS011;6792;57.698;11.946;2023-06-22T06:46:28;8.65;;;4.17;;
13439;SDS011;6792;57.698;11.946;2023-06-22T06:48:57;7.40;;;3.75;;
13439;SDS011;6792;57.698;11.946;2023-06-22T06:51:26;8.05;;;3.90;;
13439;SDS011;6792;57.698;11.946;2023-06-22T06:53:55;9.58;;;3.62;;
13439;SDS011;6792;57.698;11.946;2023-06-22T06:56:24;10.53;;;3.55;;
13439;SDS011;6792;57.698;11.946;2023-06-22T06:58:54;9.78;;;4.08;;
13439;SDS011;6792;57.698;11.946;2023-06-22T07:01:23;7.65;;;3.58;;
13439;SDS011;6792;57.698;11.946;2023-06-22T07:03:52;9.90;;;3.80;;
13439;SDS011;6792;57.698;11.946;2023-06-22T07:06:21;9.93;;;4.05;;
13439;SDS011;6792;57.698;11.946;2023-06-22T07:08:52;6.30;;;3.67;;
13439;SDS011;6792;57.698;11.946;2023-06-22T07:11:22;7.80;;;3.40;;
13439;SDS011;6792;57.698;11.946;2023-06-22T07:13:51;11.18;;;3.87;;
13439;SDS011;6792;57.698;11.946;2023-06-22T07:16:20;10.65;;;3.58;;
13439;SDS011;6792;57.698;11.946;2023-06-22T07:18:51;7.55;;;3.35;;
13439;SDS011;6792;57.698;11.946;2023-06-22T07:21:21;6.72;;;3.40;;
13439;SDS011;6792;57.698;11.946;2023-06-22T07:23:55;6.03;;;3.22;;
13439;SDS011;6792;57.698;11.946;2023-06-22T07:26:24;6.87;;;3.27;;
13439;SDS011;6792;57.698;11.946;2023-06-22T07:28:55;5.35;;;3.30;;
13439;SDS011;6792;57.698;11.946;2023-06-22T07:31:27;5.25;;;3.80;;
13439;SDS011;6792;57.698;11.946;2023-06-22T07:33:56;8.38;;;3.30;;
13439;SDS011;6792;57.698;11.946;2023-06-22T07:36:29;7.95;;;3.20;;
13439;SDS011;6792;57.698;11.946;2023-06-22T07:39:05;6.35;;;3.55;;
13439;SDS011;6792;57.698;11.946;2023-06-22T07:41:38;8.28;;;3.40;;
13439;SDS011;6792;57.698;11.946;2023-06-22T07:44:08;7.40;;;3.55;;
13439;SDS011;6792;57.698;11.946;2023-06-22T07:46:37;4.72;;;3.30;;
13439;SDS011;6792;57.698;11.946;2023-06-22T07:49:15;6.12;;;2.90;;
13439;SDS011;6792;57.698;11.946;2023-06-22T07:51:44;8.33;;;3.60;;
13439;SDS011;6792;57.698;11.946;2023-06-22T07:54:14;10.98;;;3.95;;
13439;SDS011;6792;57.698;11.946;2023-06-22T07:56:43;9.23;;;3.50;;
13439;SDS011;6792;57.698;11.946;2023-06-22T07:59:13;7.58;;;3.00;;
13439;SDS011;6792;57.698;11.946;2023-06-22T08:01:42;5.83;;;3.30;;
13439;SDS011;6792;57.698;11.946;2023-06-22T08:04:12;6.28;;;3.35;;
13439;SDS011;6792;57.698;11.946;2023-06-22T08:06:41;7.00;;;3.42;;
13439;SDS011;6792;57.698;11.946;2023-06-22T08:09:10;8.33;;;3.30;;
13439;SDS011;6792;57.698;11.946;2023-06-22T08:11:40;7.10;;;3.52;;
13439;SDS011;6792;57.698;11.946;2023-06-22T08:14:09;8.28;;;3.02;;
13439;SDS011;6792;57.698;11.946;2023-06-22T08:16:38;9.10;;;3.33;;
13439;SDS011;6792;57.698;11.946;2023-06-22T08:19:08;8.25;;;3.30;;
13439;SDS011;6792;57.698;11.946;2023-06-22T08:21:37;9.63;;;3.67;;
13439;SDS011;6792;57.698;11.946;2023-06-22T08:24:07;7.35;;;3.47;;
13439;SDS011;6792;57.698;11.946;2023-06-22T08:26:36;7.10;;;3.17;;
13439;SDS011;6792;57.698;11.946;2023-06-22T08:29:06;8.30;;;3.08;;
13439;SDS011;6792;57.698;11.946;2023-06-22T08:31:36;6.08;;;3.22;;
13439;SDS011;6792;57.698;11.946;2023-06-22T08:34:05;7.20;;;3.40;;
13439;SDS011;6792;57.698;11.946;2023-06-22T08:36:34;8.33;;;3.35;;
13439;SDS011;6792;57.698;11.946;2023-06-22T08:39:05;9.15;;;3.30;;
13439;SDS011;6792;57.698;11.946;2023-06-22T08:41:35;4.42;;;3.22;;
13439;SDS011;6792;57.698;11.946;2023-06-22T08:44:05;6.90;;;3.30;;
13439;SDS011;6792;57.698;11.946;2023-06-22T08:46:34;10.78;;;4.03;;
13439;SDS011;6792;57.698;11.946;2023-06-22T08:49:05;4.87;;;3.02;;
13439;SDS011;6792;57.698;11.946;2023-06-22T08:51:37;10.23;;;3.30;;
13439;SDS011;6792;57.698;11.946;2023-06-22T08:54:06;7.75;;;3.25;;
13439;SDS011;6792;57.698;11.946;2023-06-22T08:56:36;5.72;;;3.08;;
13439;SDS011;6792;57.698;11.946;2023-06-22T08:59:06;10.35;;;3.50;;
13439;SDS011;6792;57.698;11.946;2023-06-22T09:01:35;6.50;;;3.60;;
13439;SDS011;6792;57.698;11.946;2023-06-22T09:04:05;5.85;;;2.92;;
13439;SDS011;6792;57.698;11.946;2023-06-22T09:06:36;6.85;;;3.22;;
13439;SDS011;6792;57.698;11.946;2023-06-22T09:09:07;4.90;;;3.25;;
13439;SDS011;6792;57.698;11.946;2023-06-22T09:11:36;4.70;;;3.20;;
13439;SDS011;6792;57.698;11.946;2023-06-22T09:14:06;5.20;;;3.02;;
13439;SDS011;6792;57.698;11.946;2023-06-22T09:16:36;6.60;;;3.12;;
13439;SDS011;6792;57.698;11.946;2023-06-22T09:19:06;5.00;;;3.02;;
13439;SDS011;6792;57.698;11.946;2023-06-22T09:21:35;4.70;;;3.15;;
13439;SDS011;6792;57.698;11.946;2023-06-22T09:24:06;4.80;;;3.02;;
13439;SDS011;6792;57.698;11.946;2023-06-22T09:26:36;6.00;;;3.55;;
13439;SDS011;6792;57.698;11.946;2023-06-22T09:29:05;4.25;;;3.02;;
13439;SDS011;6792;57.698;11.946;2023-06-22T09:31:35;3.12;;;2.60;;
13439;SDS011;6792;57.698;11.946;2023-06-22T09:34:04;6.83;;;2.80;;
13439;SDS011;6792;57.698;11.946;2023-06-22T09:36:34;3.42;;;3.12;;
13439;SDS011;6792;57.698;11.946;2023-06-22T09:39:03;4.50;;;3.10;;
13439;SDS011;6792;57.698;11.946;2023-06-22T09:41:33;5.30;;;2.80;;
13439;SDS011;6792;57.698;11.946;2023-06-22T09:44:02;3.40;;;2.70;;
13439;SDS011;6792;57.698;11.946;2023-06-22T09:46:32;4.62;;;3.30;;
13439;SDS011;6792;57.698;11.946;2023-06-22T09:49:01;3.22;;;2.72;;
13439;SDS011;6792;57.698;11.946;2023-06-22T09:51:30;4.42;;;3.02;;
13439;SDS011;6792;57.698;11.946;2023-06-22T09:53:59;6.22;;;3.02;;
13439;SDS011;6792;57.698;11.946;2023-06-22T09:56:28;4.33;;;3.22;;
13439;SDS011;6792;57.698;11.946;2023-06-22T09:58:58;7.20;;;3.22;;
13439;SDS011;6792;57.698;11.946;2023-06-22T10:01:27;6.62;;;3.55;;
13439;SDS011;6792;57.698;11.946;2023-06-22T10:03:56;6.15;;;3.25;;
13439;SDS011;6792;57.698;11.946;2023-06-22T10:06:25;6.75;;;3.70;;
13439;SDS011;6792;57.698;11.946;2023-06-22T10:08:55;5.17;;;3.20;;
13439;SDS011;6792;57.698;11.946;2023-06-22T10:11:24;4.67;;;3.45;;
13439;SDS011;6792;57.698;11.946;2023-06-22T10:13:55;6.33;;;3.30;;
13439;SDS011;6792;57.698;11.946;2023-06-22T10:16:29;3.35;;;3.05;;
13439;SDS011;6792;57.698;11.946;2023-06-22T10:18:58;8.18;;;3.83;;
13439;SDS011;6792;57.698;11.946;2023-06-22T10:21:28;6.70;;;3.52;;
13439;SDS011;6792;57.698;11.946;2023-06-22T10:23:58;4.95;;;3.65;;
13439;SDS011;6792;57.698;11.946;2023-06-22T10:26:28;6.62;;;3.52;;
13439;SDS011;6792;57.698;11.946;2023-06-22T10:28:58;4.45;;;3.40;;
13439;SDS011;6792;57.698;11.946;2023-06-22T10:31:28;7.15;;;3.40;;
13439;SDS011;6792;57.698;11.946;2023-06-22T10:33:57;6.20;;;3.62;;
13439;SDS011;6792;57.698;11.946;2023-06-22T10:36:26;16.80;;;3.70;;
13439;SDS011;6792;57.698;11.946;2023-06-22T10:38:56;8.38;;;3.37;;
13439;SDS011;6792;57.698;11.946;2023-06-22T10:41:25;6.75;;;3.52;;
13439;SDS011;6792;57.698;11.946;2023-06-22T10:43:56;7.40;;;4.05;;
13439;SDS011;6792;57.698;11.946;2023-06-22T10:46:25;6.12;;;3.80;;
13439;SDS011;6792;57.698;11.946;2023-06-22T10:48:55;6.08;;;4.12;;
13439;SDS011;6792;57.698;11.946;2023-06-22T10:51:25;10.63;;;4.30;;
13439;SDS011;6792;57.698;11.946;2023-06-22T10:53:54;4.58;;;3.90;;
13439;SDS011;6792;57.698;11.946;2023-06-22T10:56:23;9.38;;;3.90;;
13439;SDS011;6792;57.698;11.946;2023-06-22T10:58:53;5.03;;;3.60;;
13439;SDS011;6792;57.698;11.946;2023-06-22T11:01:22;7.62;;;3.98;;
13439;SDS011;6792;57.698;11.946;2023-06-22T11:03:51;8.68;;;3.98;;
13439;SDS011;6792;57.698;11.946;2023-06-22T11:06:20;6.12;;;3.42;;
13439;SDS011;6792;57.698;11.946;2023-06-22T11:08:50;8.65;;;3.85;;
13439;SDS011;6792;57.698;11.946;2023-06-22T11:11:19;8.58;;;4.10;;
13439;SDS011;6792;57.698;11.946;2023-06-22T11:13:48;9.80;;;4.25;;
13439;SDS011;6792;57.698;11.946;2023-06-22T11:16:18;6.75;;;4.37;;
13439;SDS011;6792;57.698;11.946;2023-06-22T11:18:47;7.35;;;4.40;;
13439;SDS011;6792;57.698;11.946;2023-06-22T11:21:16;5.85;;;4.20;;
13439;SDS011;6792;57.698;11.946;2023-06-22T11:23:45;7.95;;;5.10;;
13439;SDS011;6792;57.698;11.946;2023-06-22T11:26:15;9.13;;;4.08;;
13439;SDS011;6792;57.698;11.946;2023-06-22T11:28:44;9.90;;;4.50;;
13439;SDS011;6792;57.698;11.946;2023-06-22T11:31:13;8.70;;;4.78;;
13439;SDS011;6792;57.698;11.946;2023-06-22T11:33:43;9.03;;;5.00;;
13439;SDS011;6792;57.698;11.946;2023-06-22T11:36:14;9.45;;;4.37;;
13439;SDS011;6792;57.698;11.946;2023-06-22T11:38:44;7.62;;;4.25;;
13439;SDS011;6792;57.698;11.946;2023-06-22T11:41:13;9.48;;;4.58;;
13439;SDS011;6792;57.698;11.946;2023-06-22T11:43:42;6.28;;;3.90;;
13439;SDS011;6792;57.698;11.946;2023-06-22T11:46:11;5.95;;;3.83;;
13439;SDS011;6792;57.698;11.946;2023-06-22T11:48:41;6.03;;;3.47;;
13439;SDS011;6792;57.698;11.946;2023-06-22T11:51:10;7.15;;;3.67;;
13439;SDS011;6792;57.698;11.946;2023-06-22T11:53:39;6.33;;;3.90;;
13439;SDS011;6792;57.698;11.946;2023-06-22T11:56:09;4.65;;;3.50;;
13439;SDS011;6792;57.698;11.946;2023-06-22T11:58:38;5.53;;;3.58;;
13439;SDS011;6792;57.698;11.946;2023-06-22T12:01:07;7.47;;;4.42;;
13439;SDS011;6792;57.698;11.946;2023-06-22T12:03:36;7.12;;;4.17;;
13439;SDS011;6792;57.698;11.946;2023-06-22T12:06:06;9.90;;;4.25;;
13439;SDS011;6792;57.698;11.946;2023-06-22T12:08:35;5.65;;;4.40;;
13439;SDS011;6792;57.698;11.946;2023-06-22T12:11:05;7.30;;;4.28;;
13439;SDS011;6792;57.698;11.946;2023-06-22T12:13:34;6.15;;;3.92;;
13439;SDS011;6792;57.698;11.946;2023-06-22T12:16:04;5.22;;;3.65;;
13439;SDS011;6792;57.698;11.946;2023-06-22T12:18:33;6.75;;;4.10;;
13439;SDS011;6792;57.698;11.946;2023-06-22T12:21:02;5.40;;;4.35;;
13439;SDS011;6792;57.698;11.946;2023-06-22T12:23:32;6.00;;;3.85;;
13439;SDS011;6792;57.698;11.946;2023-06-22T12:26:01;5.47;;;3.87;;
13439;SDS011;6792;57.698;11.946;2023-06-22T12:28:30;6.83;;;4.20;;
13439;SDS011;6792;57.698;11.946;2023-06-22T12:31:00;6.50;;;4.05;;
13439;SDS011;6792;57.698;11.946;2023-06-22T12:33:29;7.05;;;4.12;;
13439;SDS011;6792;57.698;11.946;2023-06-22T12:35:58;8.38;;;4.58;;
13439;SDS011;6792;57.698;11.946;2023-06-22T12:38:28;8.35;;;4.37;;
13439;SDS011;6792;57.698;11.946;2023-06-22T12:40:58;7.75;;;4.50;;
13439;SDS011;6792;57.698;11.946;2023-06-22T12:43:27;7.47;;;4.08;;
13439;SDS011;6792;57.698;11.946;2023-06-22T12:45:56;8.40;;;4.62;;
13439;SDS011;6792;57.698;11.946;2023-06-22T12:48:26;6.53;;;3.80;;
13439;SDS011;6792;57.698;11.946;2023-06-22T12:50:56;5.12;;;3.85;;
13439;SDS011;6792;57.698;11.946;2023-06-22T12:53:25;5.83;;;4.10;;
13439;SDS011;6792;57.698;11.946;2023-06-22T12:55:54;5.22;;;4.12;;
13439;SDS011;6792;57.698;11.946;2023-06-22T12:58:25;6.80;;;3.67;;
13439;SDS011;6792;57.698;11.946;2023-06-22T13:00:54;6.37;;;4.08;;
13439;SDS011;6792;57.698;11.946;2023-06-22T13:03:23;4.40;;;3.22;;
13439;SDS011;6792;57.698;11.946;2023-06-22T13:05:54;5.55;;;3.90;;
13439;SDS011;6792;57.698;11.946;2023-06-22T13:08:23;5.35;;;3.90;;
13439;SDS011;6792;57.698;11.946;2023-06-22T13:10:52;8.10;;;3.75;;
13439;SDS011;6792;57.698;11.946;2023-06-22T13:13:24;5.17;;;3.72;;
13439;SDS011;6792;57.698;11.946;2023-06-22T13:15:54;8.98;;;3.47;;
13439;SDS011;6792;57.698;11.946;2023-06-22T13:18:24;7.40;;;3.60;;
13439;SDS011;6792;57.698;11.946;2023-06-22T13:20:53;7.50;;;3.87;;
13439;SDS011;6792;57.698;11.946;2023-06-22T13:23:24;5.85;;;3.90;;
13439;SDS011;6792;57.698;11.946;2023-06-22T13:25:57;5.90;;;3.85;;
13439;SDS011;6792;57.698;11.946;2023-06-22T13:28:28;5.58;;;3.98;;
13439;SDS011;6792;57.698;11.946;2023-06-22T13:31:02;7.58;;;3.98;;
13439;SDS011;6792;57.698;11.946;2023-06-22T13:33:32;9.20;;;4.37;;
13439;SDS011;6792;57.698;11.946;2023-06-22T13:36:10;7.40;;;4.08;;
13439;SDS011;6792;57.698;11.946;2023-06-22T13:38:42;6.08;;;3.95;;
13439;SDS011;6792;57.698;11.946;2023-06-22T13:41:10;6.00;;;3.80;;
13439;SDS011;6792;57.698;11.946;2023-06-22T13:43:55;8.10;;;4.50;;
13439;SDS011;6792;57.698;11.946;2023-06-22T13:46:29;8.75;;;4.20;;
13439;SDS011;6792;57.698;11.946;2023-06-22T13:49:02;8.45;;;4.72;;
13439;SDS011;6792;57.698;11.946;2023-06-22T13:51:34;8.60;;;4.03;;
13439;SDS011;6792;57.698;11.946;2023-06-22T13:54:04;6.90;;;3.87;;
13439;SDS011;6792;57.698;11.946;2023-06-22T13:56:38;6.75;;;4.10;;
13439;SDS011;6792;57.698;11.946;2023-06-22T13:59:08;7.08;;;3.75;;
13439;SDS011;6792;57.698;11.946;2023-06-22T14:01:48;7.55;;;3.62;;
13439;SDS011;6792;57.698;11.946;2023-06-22T14:04:18;6.12;;;3.35;;
13439;SDS011;6792;57.698;11.946;2023-06-22T14:06:47;7.50;;;3.65;;
13439;SDS011;6792;57.698;11.946;2023-06-22T14:09:16;4.03;;;3.30;;
13439;SDS011;6792;57.698;11.946;2023-06-22T14:11:45;6.20;;;3.35;;
13439;SDS011;6792;57.698;11.946;2023-06-22T14:14:19;7.03;;;3.70;;
13439;SDS011;6792;57.698;11.946;2023-06-22T14:16:50;4.60;;;3.52;;
13439;SDS011;6792;57.698;11.946;2023-06-22T14:19:19;5.03;;;3.30;;
13439;SDS011;6792;57.698;11.946;2023-06-22T14:21:51;4.42;;;3.60;;
13439;SDS011;6792;57.698;11.946;2023-06-22T14:24:21;4.70;;;3.42;;
13439;SDS011;6792;57.698;11.946;2023-06-22T14:26:50;7.87;;;3.75;;
13439;SDS011;6792;57.698;11.946;2023-06-22T14:29:20;7.30;;;3.27;;
13439;SDS011;6792;57.698;11.946;2023-06-22T14:31:49;4.87;;;3.65;;
13439;SDS011;6792;57.698;11.946;2023-06-22T14:34:18;4.55;;;3.12;;
13439;SDS011;6792;57.698;11.946;2023-06-22T14:36:48;5.05;;;3.25;;
13439;SDS011;6792;57.698;11.946;2023-06-22T14:39:17;5.97;;;3.10;;
13439;SDS011;6792;57.698;11.946;2023-06-22T14:41:47;3.83;;;2.92;;
13439;SDS011;6792;57.698;11.946;2023-06-22T14:44:16;5.72;;;3.37;;
13439;SDS011;6792;57.698;11.946;2023-06-22T14:46:45;4.75;;;3.30;;
13439;SDS011;6792;57.698;11.946;2023-06-22T14:49:15;5.55;;;3.22;;
13439;SDS011;6792;57.698;11.946;2023-06-22T14:51:44;3.30;;;2.87;;
13439;SDS011;6792;57.698;11.946;2023-06-22T14:54:13;4.05;;;3.42;;
13439;SDS011;6792;57.698;11.946;2023-06-22T14:56:42;5.90;;;2.92;;
13439;SDS011;6792;57.698;11.946;2023-06-22T14:59:12;3.47;;;2.70;;
13439;SDS011;6792;57.698;11.946;2023-06-22T15:01:41;7.30;;;3.22;;